Time;durP1;ratioP1;P1;durP2;ratioP2;P2;SDS_P1;SDS_P2;PMS_P1;PMS_P2;Temp;Humidity;BMP_temperature;BMP_pressure;BME280_temperature;BME280_humidity;BME280_pressure;Samples;Min_cycle;Max_cycle;Signal;HPM_P1;HPM_P2
2021/11/25 00:01:57;;;;;;;7.90;4.88;;;;;;;9.21;46.81;101020.94;5067094;28;20056;-78
2021/11/25 00:04:24;;;;;;;6.72;4.88;;;;;;;9.22;46.95;101021.81;5057202;28;20049;-78
2021/11/25 00:06:51;;;;;;;7.00;5.00;;;;;;;9.23;46.91;101021.69;5054478;28;20049;-78
2021/11/25 00:09:52;;;;;;;8.32;5.20;;;;;;;9.25;46.93;101014.34;5065237;28;20480;-78
2021/11/25 00:12:18;;;;;;;8.52;5.03;;;;;;;9.24;46.83;101014.44;5048679;28;20143;-78
2021/11/25 00:14:45;;;;;;;9.20;5.32;;;;;;;9.26;47.11;101015.22;5058758;28;20081;-78
2021/11/25 00:17:12;;;;;;;7.57;5.18;;;;;;;9.27;46.96;101007.00;5067073;28;20106;-78
2021/11/25 00:19:38;;;;;;;8.32;5.35;;;;;;;9.29;47.20;101005.09;5069747;28;20045;-78
2021/11/25 00:22:05;;;;;;;7.80;4.95;;;;;;;9.30;47.02;101004.13;5066216;28;20072;-78
2021/11/25 00:24:37;;;;;;;6.68;4.93;;;;;;;9.31;46.88;101003.13;5069777;28;20045;-78
2021/11/25 00:27:04;;;;;;;7.80;5.50;;;;;;;9.34;47.02;101007.50;5068818;28;20488;-78
2021/11/25 00:29:30;;;;;;;6.55;4.90;;;;;;;9.34;46.88;100994.84;5069226;28;20066;-78
2021/11/25 00:31:57;;;;;;;8.18;5.10;;;;;;;9.36;47.12;100992.91;5065825;28;20102;-78
2021/11/25 00:34:24;;;;;;;7.80;5.43;;;;;;;9.37;47.01;100989.25;5063656;28;20044;-78
2021/11/25 00:36:51;;;;;;;8.77;5.00;;;;;;;9.37;46.95;100985.66;5054686;28;20061;-78
2021/11/25 00:39:17;;;;;;;7.15;5.40;;;;;;;9.37;46.89;100983.84;5050739;28;20106;-78
2021/11/25 00:41:47;;;;;;;7.15;5.20;;;;;;;9.38;47.01;100991.00;5059525;28;20098;-78
2021/11/25 00:44:14;;;;;;;7.20;5.20;;;;;;;9.37;46.96;100978.41;5061962;28;20040;-78
2021/11/25 00:46:41;;;;;;;7.57;5.25;;;;;;;9.37;47.19;100973.00;5049320;28;20045;-78
2021/11/25 00:49:08;;;;;;;8.48;5.40;;;;;;;9.38;47.16;100972.03;5057085;28;20055;-78
2021/11/25 00:51:36;;;;;;;7.88;5.28;;;;;;;9.39;47.23;100959.31;5047727;28;20045;-78
2021/11/25 00:54:03;;;;;;;8.43;5.00;;;;;;;9.40;47.09;100952.94;5056157;28;20541;-78
2021/11/25 00:56:30;;;;;;;8.40;5.60;;;;;;;9.40;47.30;100942.09;5064421;28;20052;-78
2021/11/25 00:58:57;;;;;;;8.85;5.75;;;;;;;9.42;46.91;100949.19;5070050;28;20539;-78
2021/11/25 01:01:23;;;;;;;7.43;5.25;;;;;;;9.42;47.03;100949.19;5059438;28;20067;-78
2021/11/25 01:03:50;;;;;;;6.70;5.00;;;;;;;9.44;47.11;100951.81;5049613;28;20139;-78
2021/11/25 01:06:17;;;;;;;7.03;4.60;;;;;;;9.44;47.41;100952.69;5042657;28;20114;-78
2021/11/25 01:08:43;;;;;;;7.53;4.75;;;;;;;9.46;47.40;100949.88;5054716;28;20049;-78
2021/11/25 01:11:16;;;;;;;7.20;4.95;;;;;;;9.46;47.32;100944.47;5056682;28;20304;-78
2021/11/25 01:13:43;;;;;;;8.02;5.25;;;;;;;9.48;47.31;100942.50;5050918;28;20132;-78
2021/11/25 01:16:10;;;;;;;8.13;5.57;;;;;;;9.50;47.33;100940.59;5042901;28;20065;-78
2021/11/25 01:18:37;;;;;;;7.50;4.80;;;;;;;9.50;47.21;100938.75;5062409;28;20171;-78
2021/11/25 01:21:04;;;;;;;7.90;5.40;;;;;;;9.52;47.57;100938.66;5062643;28;20044;-78
2021/11/25 01:23:31;;;;;;;8.75;5.28;;;;;;;9.51;47.39;100939.63;5062066;28;20040;-78
2021/11/25 01:25:58;;;;;;;8.52;5.35;;;;;;;9.54;47.24;100940.31;5050186;28;20758;-78
2021/11/25 01:28:26;;;;;;;7.57;4.88;;;;;;;9.55;47.20;100941.19;5079608;28;20063;-78
2021/11/25 01:30:56;;;;;;;7.82;4.65;;;;;;;9.56;47.42;100932.06;5064360;28;20538;-78
2021/11/25 01:33:24;;;;;;;8.23;5.47;;;;;;;9.58;47.49;100937.41;5062227;28;20048;-78
2021/11/25 01:35:52;;;;;;;7.45;5.15;;;;;;;9.61;47.66;100939.94;5063709;28;20052;-78
2021/11/25 01:38:20;;;;;;;7.30;5.00;;;;;;;9.62;47.66;100938.97;5052722;28;20523;-78
2021/11/25 01:40:47;;;;;;;6.78;4.90;;;;;;;9.64;47.67;100946.03;5056729;28;20072;-78
2021/11/25 01:43:15;;;;;;;7.35;4.95;;;;;;;9.66;47.50;100944.09;5061634;28;20087;-78
2021/11/25 01:45:42;;;;;;;8.80;5.28;;;;;;;9.67;47.53;100943.13;5063752;28;20056;-78
2021/11/25 01:48:08;;;;;;;7.30;4.97;;;;;;;9.71;47.29;100946.56;5059735;28;20076;-78
2021/11/25 01:50:36;;;;;;;7.13;4.80;;;;;;;9.74;47.81;100951.75;5065567;28;20091;-78
2021/11/25 01:53:03;;;;;;;7.95;5.05;;;;;;;9.75;47.51;100948.09;5063151;28;20088;-78
2021/11/25 01:55:30;;;;;;;7.80;5.05;;;;;;;9.76;47.42;100942.56;5067266;28;20118;-78
2021/11/25 01:57:57;;;;;;;7.68;5.18;;;;;;;9.78;47.60;100950.63;5060812;28;20107;-78
2021/11/25 02:00:26;;;;;;;7.50;5.30;;;;;;;9.79;47.45;100941.53;5062053;28;20051;-78
2021/11/25 02:02:54;;;;;;;7.60;5.28;;;;;;;9.79;47.16;100942.41;5048008;28;20045;-78
2021/11/25 02:05:21;;;;;;;6.35;4.78;;;;;;;9.79;46.95;100930.69;5043186;28;20044;-77
2021/11/25 02:07:47;;;;;;;7.60;5.22;;;;;;;9.79;47.01;100934.25;5064306;28;20551;-77
2021/11/25 02:10:15;;;;;;;6.80;5.28;;;;;;;9.78;47.06;100928.94;5065732;28;20270;-77
2021/11/25 02:12:42;;;;;;;8.63;5.18;;;;;;;9.80;47.25;100929.72;5051318;28;20075;-77
2021/11/25 02:15:11;;;;;;;7.38;4.75;;;;;;;9.80;47.33;100930.56;5060423;28;20052;-77
2021/11/25 02:17:39;;;;;;;7.28;5.03;;;;;;;9.80;47.26;100927.00;5067760;28;20106;-77
2021/11/25 02:20:09;;;;;;;7.90;5.43;;;;;;;9.81;47.43;100924.16;5044324;28;20048;-77
2021/11/25 02:22:36;;;;;;;6.53;5.00;;;;;;;9.82;47.20;100914.19;5048817;28;20086;-77
2021/11/25 02:25:06;;;;;;;7.20;5.10;;;;;;;9.82;47.60;100909.66;5059884;28;20053;-77
2021/11/25 02:27:32;;;;;;;9.10;5.43;;;;;;;9.82;47.37;100906.06;5075806;28;20136;-77
2021/11/25 02:29:59;;;;;;;6.25;4.55;;;;;;;9.82;47.42;100904.22;5066856;28;20084;-77
2021/11/25 02:32:35;;;;;;;7.95;5.28;;;;;;;9.86;47.33;100907.63;5065218;28;20487;-77
2021/11/25 02:35:04;;;;;;;7.15;4.97;;;;;;;9.84;47.42;100902.28;5050014;28;20079;-77
2021/11/25 02:37:30;;;;;;;7.40;4.85;;;;;;;9.85;47.26;100908.59;5054735;28;20052;-77
2021/11/25 02:39:57;;;;;;;7.07;5.20;;;;;;;9.85;47.29;100906.75;5052904;28;20424;-77
2021/11/25 02:42:23;;;;;;;7.25;4.97;;;;;;;9.87;47.43;100912.09;5049992;28;20072;-77
2021/11/25 02:44:50;;;;;;;8.13;4.97;;;;;;;9.86;47.48;100913.94;5071905;28;20079;-77
2021/11/25 02:47:17;;;;;;;7.03;5.10;;;;;;;9.86;47.36;100904.91;5058700;28;20519;-77
2021/11/25 02:49:44;;;;;;;8.00;5.22;;;;;;;9.85;47.05;100900.47;5052095;28;20087;-77
2021/11/25 02:52:10;;;;;;;7.90;5.50;;;;;;;9.85;47.15;100895.91;5046508;28;20056;-77
2021/11/25 02:54:42;;;;;;;7.63;5.10;;;;;;;9.85;47.07;100895.91;5065769;28;20107;-77
2021/11/25 02:57:09;;;;;;;6.80;4.78;;;;;;;9.83;47.15;100899.66;5065401;28;20056;-77
2021/11/25 02:59:35;;;;;;;6.38;4.55;;;;;;;9.83;47.44;100895.13;5075846;28;20045;-77
2021/11/25 03:02:02;;;;;;;6.40;5.07;;;;;;;9.83;47.41;100897.84;5065673;28;20507;-77
2021/11/25 03:04:29;;;;;;;6.95;4.57;;;;;;;9.84;47.43;100894.16;5057539;28;20053;-77
2021/11/25 03:06:56;;;;;;;8.27;5.50;;;;;;;9.84;47.58;100899.59;5057268;28;20526;-77
2021/11/25 03:09:22;;;;;;;7.32;5.38;;;;;;;9.85;47.42;100892.31;5068806;28;20103;-77
2021/11/25 03:11:53;;;;;;;8.27;5.30;;;;;;;9.85;47.54;100897.75;5038297;28;20473;-77
2021/11/25 03:14:20;;;;;;;7.80;4.88;;;;;;;9.84;47.56;100894.16;5070023;28;20040;-77
2021/11/25 03:16:47;;;;;;;5.70;4.43;;;;;;;9.85;47.47;100889.59;5059144;28;20060;-77
2021/11/25 03:19:13;;;;;;;8.38;5.60;;;;;;;9.85;47.46;100882.34;5062840;28;20114;-77
2021/11/25 03:21:40;;;;;;;8.05;4.85;;;;;;;9.85;47.47;100881.47;5049883;28;20061;-77
2021/11/25 03:24:07;;;;;;;6.90;4.90;;;;;;;9.84;47.42;100872.47;5069867;28;20051;-77
2021/11/25 03:26:33;;;;;;;8.02;4.93;;;;;;;9.82;47.46;100866.25;5068418;28;20384;-77
2021/11/25 03:29:01;;;;;;;7.18;5.00;;;;;;;9.81;47.31;100859.09;5081326;28;20500;-77
2021/11/25 03:31:32;;;;;;;8.05;5.13;;;;;;;9.82;47.24;100854.53;5061783;28;20134;-76
2021/11/25 03:34:00;;;;;;;7.40;4.80;;;;;;;9.79;47.51;100847.50;5058260;28;20109;-77
2021/11/25 03:36:27;;;;;;;7.97;4.97;;;;;;;9.75;47.51;100843.22;5067274;28;20056;-77
2021/11/25 03:38:55;;;;;;;7.10;5.03;;;;;;;9.76;47.31;100846.81;5053065;28;20053;-77
2021/11/25 03:41:22;;;;;;;8.15;5.45;;;;;;;9.74;47.25;100852.31;5068394;28;20052;-77
2021/11/25 03:43:49;;;;;;;7.30;5.00;;;;;;;9.74;47.64;100851.44;5064845;28;20480;-77
2021/11/25 03:46:16;;;;;;;7.30;4.88;;;;;;;9.71;47.16;100848.94;5068552;28;20480;-76
2021/11/25 03:48:43;;;;;;;7.22;4.88;;;;;;;9.73;47.43;100852.41;5063379;28;20080;-77
2021/11/25 03:51:12;;;;;;;7.10;4.60;;;;;;;9.73;47.31;100856.00;5061975;28;20106;-77
2021/11/25 03:53:43;;;;;;;6.78;4.45;;;;;;;9.73;47.41;100856.00;5069853;28;20072;-77
2021/11/25 03:56:10;;;;;;;6.90;4.65;;;;;;;9.71;47.84;100846.25;5065736;28;20065;-77
2021/11/25 03:58:36;;;;;;;7.30;4.65;;;;;;;9.73;47.64;100844.28;5075070;28;20102;-77
2021/11/25 04:01:03;;;;;;;7.47;5.30;;;;;;;9.73;47.48;100834.31;5057547;28;20088;-77
2021/11/25 04:03:30;;;;;;;6.80;4.47;;;;;;;9.74;47.71;100830.63;5060542;28;20479;-77
2021/11/25 04:05:57;;;;;;;8.60;5.25;;;;;;;9.75;47.48;100835.09;5064005;28;20052;-77
2021/11/25 04:08:24;;;;;;;8.40;5.18;;;;;;;9.76;47.33;100830.53;5051050;28;20056;-77
2021/11/25 04:10:50;;;;;;;8.82;5.82;;;;;;;9.76;47.48;100830.53;5064913;28;20052;-77
2021/11/25 04:13:18;;;;;;;7.32;5.03;;;;;;;9.77;47.55;100832.28;5053088;28;20090;-77
2021/11/25 04:15:44;;;;;;;7.47;5.10;;;;;;;9.78;47.69;100828.59;5065520;28;20473;-77
2021/11/25 04:18:11;;;;;;;7.80;5.25;;;;;;;9.80;47.50;100837.53;5066150;28;20052;-77
2021/11/25 04:20:38;;;;;;;7.75;5.32;;;;;;;9.81;47.73;100825.69;5062042;28;20405;-77
2021/11/25 04:23:05;;;;;;;8.18;5.30;;;;;;;9.84;47.66;100822.78;5058472;28;20056;-77
2021/11/25 04:25:37;;;;;;;7.70;5.50;;;;;;;9.82;47.60;100824.72;5054874;28;20136;-77
2021/11/25 04:28:04;;;;;;;6.60;5.63;;;;;;;9.83;47.52;100819.19;5053477;28;20076;-77
2021/11/25 04:30:48;;;;;;;7.32;5.03;;;;;;;9.85;47.61;100825.41;5051621;28;20563;-77
2021/11/25 04:36:01;;;;;;;7.95;5.20;;;;;;;9.86;47.63;100834.41;5056475;28;20061;-77
2021/11/25 04:38:28;;;;;;;9.10;5.22;;;;;;;9.88;47.69;100832.47;5061017;28;20723;-77
2021/11/25 04:41:01;;;;;;;6.53;5.10;;;;;;;9.90;47.33;100835.94;5064440;28;20052;-77
2021/11/25 04:43:28;;;;;;;;;;;;;;;9.68;48.05;100833.75;5063782;28;20186;-76
2021/11/25 04:45:56;;;;;;;6.88;4.45;;;;;;;9.87;47.50;100836.16;5058877;28;19932;-77
2021/11/25 04:48:25;;;;;;;8.23;5.93;;;;;;;9.91;47.45;100829.56;5066736;28;20439;-77
2021/11/25 04:50:52;;;;;;;8.93;6.00;;;;;;;9.91;47.52;100822.28;5040360;28;20048;-77
2021/11/25 04:53:21;;;;;;;7.20;5.30;;;;;;;9.93;47.39;100819.47;5063871;28;20045;-77
2021/11/25 04:55:47;;;;;;;8.55;5.75;;;;;;;9.91;47.33;100811.44;5058269;28;20092;-77
2021/11/25 04:58:15;;;;;;;8.45;6.07;;;;;;;9.90;47.77;100806.97;5070629;28;20044;-77
2021/11/25 05:00:43;;;;;;;7.85;5.72;;;;;;;9.90;47.36;100796.13;5074360;28;20057;-77
2021/11/25 05:03:10;;;;;;;7.03;5.32;;;;;;;9.89;47.46;100810.66;5066351;28;20399;-77
2021/11/25 05:05:38;;;;;;;7.28;5.18;;;;;;;9.91;47.50;100821.41;5061033;28;20044;-77
2021/11/25 05:08:06;;;;;;;8.07;6.03;;;;;;;9.91;47.47;100818.69;5051389;28;20106;-77
2021/11/25 05:10:32;;;;;;;8.82;5.82;;;;;;;9.90;47.46;100815.13;5059476;28;20055;-77
2021/11/25 05:12:59;;;;;;;9.07;5.53;;;;;;;9.90;47.55;100808.81;5060427;28;20423;-77
2021/11/25 05:15:26;;;;;;;8.73;6.10;;;;;;;9.91;47.39;100818.69;5047542;28;20083;-77
2021/11/25 05:17:53;;;;;;;9.00;5.88;;;;;;;9.91;47.51;100819.56;5062758;28;20048;-77
2021/11/25 05:20:20;;;;;;;9.73;5.93;;;;;;;9.92;47.51;100824.03;5057025;28;20793;-77
2021/11/25 05:22:47;;;;;;;8.40;5.45;;;;;;;9.92;47.64;100821.31;5057737;28;20469;-77
2021/11/25 05:25:15;;;;;;;8.60;5.68;;;;;;;9.93;47.56;100831.22;5055798;28;20079;-77
2021/11/25 05:27:43;;;;;;;8.70;5.78;;;;;;;9.93;47.23;100833.91;5045655;28;20068;-77
2021/11/25 05:30:30;;;;;;;9.27;6.05;;;;;;;9.95;47.40;100839.25;5050663;28;20142;-77
2021/11/25 05:33:02;;;;;;;9.85;6.07;;;;;;;9.96;47.56;100840.13;5038022;28;20406;-77
2021/11/25 05:35:29;;;;;;;9.52;6.60;;;;;;;9.93;47.64;100825.78;5055493;28;20053;-77
2021/11/25 05:37:56;;;;;;;9.10;6.35;;;;;;;9.96;47.63;100831.97;5059474;28;20106;-78
2021/11/25 05:40:23;;;;;;;8.82;5.82;;;;;;;9.96;47.55;100835.56;5069300;28;20083;-77
2021/11/25 05:42:50;;;;;;;9.27;6.18;;;;;;;9.96;47.31;100830.16;5057346;28;20052;-78
2021/11/25 05:45:19;;;;;;;8.93;5.97;;;;;;;9.98;47.64;100819.16;5054989;28;20487;-77
2021/11/25 05:47:47;;;;;;;7.22;5.63;;;;;;;9.97;47.50;100820.13;5057587;28;20049;-78
2021/11/25 05:50:18;;;;;;;8.85;6.00;;;;;;;9.98;47.61;100811.91;5057907;28;20102;-78
2021/11/25 05:52:47;;;;;;;7.13;5.05;;;;;;;9.99;47.47;100824.50;5054697;28;20076;-77
2021/11/25 05:55:14;;;;;;;7.75;5.38;;;;;;;9.99;47.53;100829.06;5046992;28;20084;-76
2021/11/25 05:57:41;;;;;;;9.32;6.22;;;;;;;9.98;47.25;100822.75;5046693;28;20052;-76
2021/11/25 06:00:11;;;;;;;8.93;5.65;;;;;;;9.99;47.31;100808.22;5054059;28;20076;-77
2021/11/25 06:02:40;;;;;;;7.72;5.30;;;;;;;9.97;47.26;100810.16;5065804;28;20071;-77
2021/11/25 06:05:08;;;;;;;8.25;5.45;;;;;;;9.99;47.21;100807.34;5066042;28;20372;-78
2021/11/25 06:07:35;;;;;;;7.20;5.50;;;;;;;9.96;47.17;100803.03;5051459;28;20082;-78
2021/11/25 06:10:03;;;;;;;9.25;5.63;;;;;;;9.96;47.22;100792.19;5062814;28;20084;-78
2021/11/25 06:12:30;;;;;;;8.27;5.80;;;;;;;9.96;47.44;100789.47;5075004;28;20135;-78
2021/11/25 06:14:57;;;;;;;8.30;5.78;;;;;;;9.95;47.16;100797.69;5055854;28;20458;-78
2021/11/25 06:17:23;;;;;;;7.55;5.00;;;;;;;9.93;47.16;100792.38;5062950;28;20479;-78
2021/11/25 06:19:55;;;;;;;7.43;5.65;;;;;;;9.91;46.77;100787.03;5065940;28;20049;-77
2021/11/25 06:22:22;;;;;;;8.52;6.35;;;;;;;9.93;47.16;100786.94;5064024;28;20118;-78
2021/11/25 06:24:50;;;;;;;8.45;5.95;;;;;;;9.92;47.16;100790.63;5057202;28;20041;-78
2021/11/25 06:27:17;;;;;;;9.30;5.78;;;;;;;9.89;47.11;100786.25;5050144;28;20071;-79
2021/11/25 06:29:44;;;;;;;9.43;5.80;;;;;;;9.89;47.04;100783.53;5066986;28;20084;-78
2021/11/25 06:32:11;;;;;;;8.98;5.78;;;;;;;9.88;47.03;100781.81;5067982;28;20075;-79
2021/11/25 06:34:38;;;;;;;7.63;5.68;;;;;;;9.86;47.27;100781.06;5066555;28;20085;-78
2021/11/25 06:37:05;;;;;;;8.10;5.68;;;;;;;9.87;47.13;100773.78;5059062;28;20071;-79
2021/11/25 06:39:32;;;;;;;8.50;5.68;;;;;;;9.84;47.08;100761.28;5066574;28;20136;-79
2021/11/25 06:41:58;;;;;;;8.20;5.32;;;;;;;9.84;47.12;100763.13;5045800;28;20362;-79
2021/11/25 06:44:25;;;;;;;8.85;5.88;;;;;;;9.82;47.25;100765.06;5067750;28;20044;-79
2021/11/25 06:46:52;;;;;;;9.30;6.07;;;;;;;9.80;46.99;100767.88;5063596;28;20106;-79
2021/11/25 06:49:18;;;;;;;10.30;6.65;;;;;;;9.78;47.20;100769.84;5064521;28;20045;-79
2021/11/25 06:51:45;;;;;;;8.75;6.13;;;;;;;9.78;47.24;100771.66;5055480;28;20169;-79
2021/11/25 06:54:12;;;;;;;9.52;6.40;;;;;;;9.77;47.15;100769.94;5070245;28;20044;-79
2021/11/25 06:56:39;;;;;;;8.85;5.95;;;;;;;9.75;47.00;100783.56;5070954;28;20490;-79
2021/11/25 06:59:09;;;;;;;7.72;5.65;;;;;;;9.74;47.04;100780.97;5046530;28;20056;-78
2021/11/25 07:01:36;;;;;;;8.77;6.47;;;;;;;9.72;47.06;100772.91;5066176;28;20533;-78
2021/11/25 07:04:03;;;;;;;8.45;6.13;;;;;;;9.70;47.09;100769.47;5051102;28;20044;-78
2021/11/25 07:06:30;;;;;;;11.15;6.88;;;;;;;9.70;46.78;100782.16;5062933;28;20060;-78
2021/11/25 07:09:00;;;;;;;9.07;6.10;;;;;;;9.69;46.88;100793.94;5066041;28;20063;-77
2021/11/25 07:11:28;;;;;;;9.40;6.03;;;;;;;9.65;47.02;100800.53;5059403;28;20450;-78
2021/11/25 07:13:54;;;;;;;9.65;6.70;;;;;;;9.63;46.76;100807.91;5066915;28;20037;-78
2021/11/25 07:16:21;;;;;;;9.82;6.85;;;;;;;9.59;46.85;100807.22;5055529;28;20551;-79
2021/11/25 07:18:51;;;;;;;9.98;6.57;;;;;;;9.57;46.60;100810.97;5052416;28;20057;-79
2021/11/25 07:21:18;;;;;;;9.93;6.85;;;;;;;9.51;46.89;100814.97;5044754;28;20056;-78
2021/11/25 07:23:45;;;;;;;11.40;7.40;;;;;;;9.49;46.69;100820.47;5068732;28;20504;-78
2021/11/25 07:26:11;;;;;;;10.38;6.45;;;;;;;9.46;47.04;100815.25;5050361;28;20052;-78
2021/11/25 07:28:38;;;;;;;10.20;7.20;;;;;;;9.44;46.83;100822.63;5084991;28;20048;-79
2021/11/25 07:31:05;;;;;;;11.50;8.00;;;;;;;9.42;47.12;100832.66;5051414;28;20146;-77
2021/11/25 07:33:32;;;;;;;10.10;7.38;;;;;;;9.40;46.92;100829.19;5056662;28;20040;-78
2021/11/25 07:35:58;;;;;;;9.90;7.25;;;;;;;9.39;46.90;100831.97;5043929;28;20053;-78
2021/11/25 07:38:25;;;;;;;12.52;7.95;;;;;;;9.35;46.83;100834.03;5069262;28;20080;-78
2021/11/25 07:40:52;;;;;;;9.95;8.05;;;;;;;9.33;46.97;100833.25;5051129;28;20103;-77
2021/11/25 07:43:19;;;;;;;12.05;7.78;;;;;;;9.31;46.93;100831.59;5059078;28;20148;-78
2021/11/25 07:45:46;;;;;;;12.90;8.88;;;;;;;9.29;47.13;100845.25;5069103;28;20048;-78
2021/11/25 07:48:12;;;;;;;14.85;9.55;;;;;;;9.28;46.94;100848.91;5070351;28;20092;-78
2021/11/25 07:50:42;;;;;;;11.80;9.05;;;;;;;9.27;46.78;100847.16;5039587;28;20106;-78
2021/11/25 07:53:10;;;;;;;13.48;9.70;;;;;;;9.25;46.83;100838.25;5062839;28;20084;-78
2021/11/25 07:55:36;;;;;;;15.00;9.00;;;;;;;9.23;47.02;100839.31;5065571;28;20074;-78
2021/11/25 07:58:04;;;;;;;13.77;9.20;;;;;;;9.22;46.98;100835.75;5065531;28;20095;-78
2021/11/25 08:00:31;;;;;;;13.57;9.40;;;;;;;9.21;47.26;100835.84;5072859;28;20045;-78
2021/11/25 08:02:58;;;;;;;13.93;9.68;;;;;;;9.21;46.99;100835.84;5049046;28;20471;-78
2021/11/25 08:05:26;;;;;;;14.23;9.25;;;;;;;9.19;47.24;100833.22;5073013;28;20041;-78
2021/11/25 08:07:54;;;;;;;13.75;9.77;;;;;;;9.20;47.14;100839.53;5052853;28;20061;-78
2021/11/25 08:10:23;;;;;;;15.93;10.45;;;;;;;9.20;47.31;100836.81;5056847;28;20056;-78
2021/11/25 08:12:50;;;;;;;14.85;9.85;;;;;;;9.19;47.24;100835.94;5063171;28;20052;-78
2021/11/25 08:15:17;;;;;;;15.50;10.10;;;;;;;9.19;47.07;100829.66;5056389;28;20492;-79
2021/11/25 08:17:43;;;;;;;16.70;10.05;;;;;;;9.19;47.16;100830.53;5045412;28;20072;-79
2021/11/25 08:20:11;;;;;;;14.15;9.30;;;;;;;9.18;47.34;100828.78;5050983;28;20095;-79
2021/11/25 08:22:40;;;;;;;15.75;10.48;;;;;;;9.19;47.25;100819.69;5067122;28;20307;-79
2021/11/25 08:25:08;;;;;;;14.85;9.85;;;;;;;9.20;47.27;100815.13;5049932;28;20056;-79
2021/11/25 08:27:36;;;;;;;16.13;10.55;;;;;;;9.21;47.37;100811.47;5076668;28;20114;-79
2021/11/25 08:30:06;;;;;;;15.60;10.23;;;;;;;9.22;47.39;100805.09;5079130;28;20048;-79
2021/11/25 08:32:33;;;;;;;16.45;10.07;;;;;;;9.20;47.11;100810.59;5045686;28;20060;-79
2021/11/25 08:35:00;;;;;;;15.48;10.77;;;;;;;9.21;47.43;100811.47;5057868;28;20580;-78
2021/11/25 08:37:27;;;;;;;15.90;10.50;;;;;;;9.23;47.40;100815.81;5055407;28;20340;-79
2021/11/25 08:39:53;;;;;;;17.50;10.65;;;;;;;9.23;47.27;100809.50;5065398;28;20502;-79
2021/11/25 08:42:20;;;;;;;17.20;10.82;;;;;;;9.23;47.36;100807.69;5051556;28;20045;-78
2021/11/25 08:44:49;;;;;;;18.13;10.52;;;;;;;9.24;47.55;100797.72;5038476;28;20052;-78
2021/11/25 08:47:15;;;;;;;16.48;10.80;;;;;;;9.24;47.53;100798.59;5062941;28;20102;-78
2021/11/25 08:49:42;;;;;;;17.58;11.05;;;;;;;9.26;47.45;100795.78;5056805;28;20502;-78
2021/11/25 08:52:09;;;;;;;15.98;9.95;;;;;;;9.26;47.32;100793.06;5055041;28;20111;-79
2021/11/25 08:54:39;;;;;;;16.23;10.48;;;;;;;9.28;47.44;100789.31;5057969;28;20040;-79
2021/11/25 08:57:06;;;;;;;16.50;10.43;;;;;;;9.29;47.51;100795.59;5067606;28;20109;-78
2021/11/25 08:59:32;;;;;;;18.20;11.77;;;;;;;9.30;47.42;100789.22;5070739;28;20098;-78
2021/11/25 09:01:59;;;;;;;16.55;10.77;;;;;;;9.31;47.74;100789.09;5031093;28;20115;-79
2021/11/25 09:04:27;;;;;;;17.15;11.38;;;;;;;9.33;47.58;100791.72;5050190;28;20555;-78
2021/11/25 09:06:54;;;;;;;17.73;12.55;;;;;;;9.34;47.71;100785.34;5048192;28;20056;-78
2021/11/25 09:09:21;;;;;;;14.70;10.13;;;;;;;9.38;47.87;100789.63;5052038;28;20131;-78
2021/11/25 09:11:48;;;;;;;17.42;11.73;;;;;;;9.39;47.54;100781.38;5054665;28;20206;-78
2021/11/25 09:14:17;;;;;;;17.77;11.48;;;;;;;9.42;47.50;100783.88;5065978;28;20049;-78
2021/11/25 09:16:44;;;;;;;18.35;11.75;;;;;;;9.45;47.70;100789.13;5062458;28;20056;-78
2021/11/25 09:19:10;;;;;;;17.83;11.63;;;;;;;9.47;47.72;100794.47;5049151;28;20098;-78
2021/11/25 09:21:37;;;;;;;18.83;11.77;;;;;;;9.49;47.64;100798.78;5055356;28;20110;-78
2021/11/25 09:24:05;;;;;;;15.45;10.85;;;;;;;9.52;47.65;100803.16;5065526;28;20140;-78
2021/11/25 09:26:34;;;;;;;16.27;10.23;;;;;;;9.53;47.66;100803.06;5058590;28;20043;-78
2021/11/25 09:29:05;;;;;;;17.15;11.13;;;;;;;9.57;47.72;100801.00;5070212;28;20408;-78
2021/11/25 09:31:32;;;;;;;14.50;11.20;;;;;;;9.59;47.78;100795.50;5048808;28;20549;-78
2021/11/25 09:34:01;;;;;;;20.48;13.68;;;;;;;9.62;47.66;100804.31;5063065;28;20538;-78
2021/11/25 09:36:30;;;;;;;17.13;11.70;;;;;;;9.63;47.45;100805.19;5061626;28;20118;-78
2021/11/25 09:38:58;;;;;;;15.95;11.50;;;;;;;9.65;47.65;100804.09;5061502;28;20045;-78
2021/11/25 09:41:25;;;;;;;17.33;11.52;;;;;;;9.66;47.50;100811.28;5048893;28;20060;-79
2021/11/25 09:43:52;;;;;;;18.38;12.73;;;;;;;9.67;47.65;100818.44;5057396;28;20048;-78
2021/11/25 09:46:22;;;;;;;17.65;11.43;;;;;;;9.69;47.42;100819.22;5045272;28;20053;-78
2021/11/25 09:48:49;;;;;;;16.13;10.75;;;;;;;9.70;47.55;100828.22;5061305;28;20052;-78
2021/11/25 09:51:17;;;;;;;18.90;11.75;;;;;;;9.70;47.62;100826.38;5049493;28;20045;-78
2021/11/25 09:53:44;;;;;;;16.70;11.57;;;;;;;9.70;47.66;100830.94;5060607;28;20091;-78
2021/11/25 09:56:10;;;;;;;17.63;11.90;;;;;;;9.71;47.69;100830.84;5070737;28;20060;-78
2021/11/25 09:58:38;;;;;;;17.73;11.68;;;;;;;9.73;47.58;100831.59;5092514;28;20097;-78
2021/11/25 10:01:08;;;;;;;15.43;11.55;;;;;;;9.75;47.29;100845.06;5072903;28;20056;-78
2021/11/25 10:03:38;;;;;;;18.98;11.82;;;;;;;9.76;47.48;100844.09;5069534;28;20051;-78
2021/11/25 10:06:05;;;;;;;17.55;10.98;;;;;;;9.75;47.29;100842.34;5066736;28;20472;-78
2021/11/25 10:08:43;;;;;;;19.08;12.32;;;;;;;9.78;47.53;100837.63;5068791;28;20044;-78
2021/11/25 10:11:14;;;;;;;17.83;11.77;;;;;;;9.76;47.56;100831.41;5053766;28;20082;-78
2021/11/25 10:13:55;;;;;;;16.02;11.43;;;;;;;9.79;47.46;100824.94;5067246;28;20092;-78
2021/11/25 10:16:30;;;;;;;17.63;10.93;;;;;;;9.80;47.22;100826.69;5064632;28;20048;-78
2021/11/25 10:19:07;;;;;;;17.65;11.57;;;;;;;9.78;47.58;100817.75;5069260;28;20048;-78
2021/11/25 10:21:40;;;;;;;16.98;11.55;;;;;;;9.81;47.58;100821.13;5059028;28;20045;-78
2021/11/25 10:24:07;;;;;;;18.52;12.25;;;;;;;9.78;47.57;100821.34;5056502;28;20048;-78
2021/11/25 10:26:34;;;;;;;16.63;12.00;;;;;;;9.80;47.50;100813.97;5047873;28;20106;-79
2021/11/25 10:29:10;;;;;;;19.40;12.75;;;;;;;9.85;47.41;100817.28;5063180;28;20076;-77
2021/11/25 10:31:40;;;;;;;17.50;12.68;;;;;;;9.84;47.50;100820.06;5048263;28;20060;-78
2021/11/25 10:34:15;;;;;;;19.23;12.10;;;;;;;9.84;47.36;100814.66;5066290;28;20093;-78
2021/11/25 10:42:17;;;;;;;17.98;12.48;;;;;;;9.83;47.46;100819.19;5067649;28;20390;-78
2021/11/25 10:44:52;;;;;;;17.75;12.30;;;;;;;9.86;47.37;100815.44;5045398;28;20048;-78
2021/11/25 10:47:24;;;;;;;18.42;12.15;;;;;;;9.85;47.49;100816.41;5059491;28;20490;-78
2021/11/25 10:49:54;;;;;;;22.15;14.07;;;;;;;9.85;47.55;100808.25;5062123;28;20057;-78
2021/11/25 10:52:35;;;;;;;18.80;12.30;;;;;;;9.89;47.11;100790.81;5071555;28;20098;-78
2021/11/25 10:55:05;;;;;;;18.73;12.95;;;;;;;9.87;47.34;100782.81;5064787;28;20052;-78
2021/11/25 10:57:53;;;;;;;18.77;12.70;;;;;;;9.88;47.47;100784.50;5072049;28;20040;-78
2021/11/25 11:00:25;;;;;;;18.05;11.95;;;;;;;9.88;47.52;100791.81;5061668;28;20098;-78
2021/11/25 11:03:22;;;;;;;18.70;12.23;;;;;;;9.91;47.59;100791.59;5049634;28;20495;-78
2021/11/25 11:05:56;;;;;;;19.60;13.05;;;;;;;9.91;47.66;100788.88;5064465;28;20056;-78
2021/11/25 11:08:28;;;;;;;19.42;12.68;;;;;;;9.93;47.49;100785.09;5046846;28;20122;-78
2021/11/25 11:11:04;;;;;;;19.07;12.40;;;;;;;9.93;47.53;100770.66;5052166;28;20056;-78
2021/11/25 11:18:56;;;;;;;20.23;13.00;;;;;;;9.97;47.44;100774.91;5066277;28;20049;-79
2021/11/25 11:21:43;;;;;;;23.50;12.13;;;;;;;9.99;47.67;100772.09;5029500;28;20045;-78
2021/11/25 11:24:14;;;;;;;17.73;11.52;;;;;;;9.98;47.68;100776.66;5054026;28;20500;-77
2021/11/25 11:26:53;;;;;;;16.35;11.48;;;;;;;10.01;47.94;100781.88;5053301;28;20110;-78
2021/11/25 11:29:23;;;;;;;16.92;12.40;;;;;;;10.03;47.55;100779.06;5063969;28;20522;-78
2021/11/25 11:31:52;;;;;;;16.52;11.77;;;;;;;10.04;47.53;100778.97;5061732;28;20122;-78
2021/11/25 11:34:19;;;;;;;17.42;12.00;;;;;;;10.06;47.94;100779.72;5060968;28;20443;-70
2021/11/25 11:36:52;;;;;;;19.23;11.93;;;;;;;10.09;47.74;100782.25;5067690;28;20139;-78
2021/11/25 11:39:22;;;;;;;18.58;12.18;;;;;;;10.10;47.91;100783.13;5061855;28;20416;-78
2021/11/25 11:41:52;;;;;;;17.40;11.93;;;;;;;10.13;47.58;100785.66;5035875;28;20106;-78
2021/11/25 11:44:22;;;;;;;19.40;11.98;;;;;;;10.15;47.79;100786.38;5055469;28;20045;-78
2021/11/25 11:46:54;;;;;;;17.55;11.90;;;;;;;10.18;47.83;100783.53;5062826;28;20060;-79
2021/11/25 11:49:22;;;;;;;19.65;12.80;;;;;;;10.17;47.92;100771.78;5048182;28;20084;-77